Time;durP1;ratioP1;P1;durP2;ratioP2;P2;SDS_P1;SDS_P2;PMS_P1;PMS_P2;Temp;Humidity;BMP_temperature;BMP_pressure;BME280_temperature;BME280_humidity;BME280_pressure;Samples;Min_cycle;Max_cycle;Signal;HPM_P1;HPM_P2
2022/02/10 00:14:37;;;;;;;20.80;9.00;;;;;;;6.33;75.52;99614.72;106093;1275;111334;-70
2022/02/10 00:26:03;;;;;;;21.10;9.30;;;;;;;6.31;75.31;99620.83;106018;1274;96298;-69
2022/02/10 00:36:04;;;;;;;21.30;9.50;;;;;;;6.23;75.26;99618.87;106128;1276;97970;-70
2022/02/10 00:38:39;;;;;;;20.80;10.00;;;;;;;6.23;75.30;99613.45;107376;1274;95631;-69
2022/02/10 00:41:11;;;;;;;20.70;9.80;;;;;;;6.21;75.37;99612.11;106164;1276;111424;-67
2022/02/10 00:43:39;;;;;;;19.30;8.50;;;;;;;6.21;75.37;99611.92;106184;1274;97883;-69
2022/02/10 00:46:07;;;;;;;21.50;9.30;;;;;;;6.21;75.14;99610.33;106157;1274;107721;-69
2022/02/10 00:48:40;;;;;;;20.10;8.90;;;;;;;6.22;75.38;99609.61;106173;1274;95898;-69
2022/02/10 00:51:10;;;;;;;19.00;8.30;;;;;;;6.22;75.39;99609.58;106109;1274;97831;-68
2022/02/10 00:53:41;;;;;;;18.70;9.20;;;;;;;6.22;75.20;99609.40;106084;1275;111423;-68
2022/02/10 00:56:14;;;;;;;18.80;8.70;;;;;;;6.22;75.08;99609.96;106180;1275;97708;-67
2022/02/10 00:59:07;;;;;;;20.00;9.20;;;;;;;6.19;75.11;99600.90;106162;1274;106713;-69
2022/02/10 01:32:07;;;;;;;16.70;7.60;;;;;;;6.21;74.98;99587.45;106010;1274;95168;-69
2022/02/10 01:34:47;;;;;;;16.00;6.90;;;;;;;6.23;74.91;99587.70;106024;1275;111994;-71
2022/02/10 01:37:24;;;;;;;17.20;7.80;;;;;;;6.24;74.99;99583.41;106033;1274;98984;-72
2022/02/10 01:39:56;;;;;;;14.80;6.50;;;;;;;6.25;74.89;99582.33;106037;1277;107713;-71
2022/02/10 02:04:46;;;;;;;14.50;5.60;;;;;;;6.17;74.63;99562.10;106128;1274;97979;-70
2022/02/10 02:07:27;;;;;;;12.60;5.30;;;;;;;6.18;74.49;99566.29;106060;1274;107819;-69
2022/02/10 02:09:59;;;;;;;15.50;6.10;;;;;;;6.19;74.60;99568.88;106023;1275;97995;-70
2022/02/10 02:12:27;;;;;;;16.20;5.70;;;;;;;6.20;74.62;99567.45;106221;1274;97989;-69
2022/02/10 02:14:55;;;;;;;17.60;6.20;;;;;;;6.20;74.61;99565.48;106206;1275;111361;-69
2022/02/10 02:17:28;;;;;;;13.20;5.80;;;;;;;6.21;74.49;99565.09;106197;1275;97873;-67
2022/02/10 02:19:55;;;;;;;15.50;6.00;;;;;;;6.22;74.29;99569.60;106190;1274;107457;-70
2022/02/10 02:22:23;;;;;;;13.40;5.30;;;;;;;6.23;74.36;99571.70;106140;1274;97863;-69
2022/02/10 02:24:51;;;;;;;11.30;5.40;;;;;;;6.22;74.10;99566.10;106187;1274;95261;-69
2022/02/10 02:27:19;;;;;;;13.60;5.20;;;;;;;6.21;74.18;99574.05;106054;1274;109420;-69
2022/02/10 02:29:57;;;;;;;12.70;5.50;;;;;;;6.22;74.30;99571.20;106050;1274;97982;-71
2022/02/10 02:32:35;;;;;;;12.70;5.30;;;;;;;6.23;74.12;99569.05;106028;1274;107711;-70
2022/02/10 02:35:21;;;;;;;13.60;5.40;;;;;;;6.23;74.07;99571.50;106113;1274;97931;-70
2022/02/10 03:08:38;;;;;;;12.70;5.70;;;;;;;6.28;73.92;99573.95;106142;1274;111333;-68
2022/02/10 03:11:11;;;;;;;13.30;5.50;;;;;;;6.24;73.71;99568.11;106165;1274;97903;-70
2022/02/10 03:13:48;;;;;;;10.20;4.80;;;;;;;6.22;73.79;99566.10;106080;1277;107631;-68
2022/02/10 03:19:41;;;;;;;12.80;5.40;;;;;;;6.20;73.72;99568.48;106040;1276;98552;-69
2022/02/10 04:01:56;;;;;;;12.20;5.40;;;;;;;6.07;73.17;99565.89;105998;1276;97982;-70
2022/02/10 04:06:27;;;;;;;13.70;5.40;;;;;;;6.07;73.31;99562.21;106031;1277;97893;-70
2022/02/10 04:11:50;;;;;;;11.50;5.30;;;;;;;6.05;73.22;99555.27;105967;1276;98514;-73
2022/02/10 04:14:29;;;;;;;12.70;5.30;;;;;;;6.04;73.18;99554.23;106014;1274;97969;-71
2022/02/10 04:20:05;;;;;;;13.60;5.40;;;;;;;6.04;73.01;99547.58;106033;1274;97932;-69
2022/02/10 05:33:03;;;;;;;13.90;5.50;;;;;;;5.90;72.49;99547.80;106060;1274;97876;-71
2022/02/10 05:35:41;;;;;;;17.10;6.60;;;;;;;5.88;72.33;99544.58;106086;1274;95908;-69
2022/02/10 05:38:21;;;;;;;15.10;6.40;;;;;;;5.87;72.19;99548.66;106042;1276;111532;-70
2022/02/10 05:44:03;;;;;;;15.90;6.20;;;;;;;5.88;72.21;99553.36;106101;1277;107785;-71
2022/02/10 06:55:00;;;;;;;15.10;6.10;;;;;;;6.09;71.72;99586.23;105988;1274;98051;-72
2022/02/10 07:06:18;;;;;;;16.30;7.10;;;;;;;6.13;71.51;99598.56;106020;1276;107467;-72
2022/02/10 07:15:14;;;;;;;16.20;6.20;;;;;;;6.13;71.35;99597.33;106038;1274;111416;-71
2022/02/10 07:43:31;;;;;;;15.60;6.60;;;;;;;6.13;71.57;99588.17;105983;1276;98015;-72
2022/02/10 08:50:38;;;;;;;17.90;7.70;;;;;;;7.77;70.45;99555.08;105994;1274;111478;-74
2022/02/10 08:55:36;;;;;;;18.40;8.00;;;;;;;7.98;70.31;99550.77;105949;1274;107616;-73
2022/02/10 10:03:25;;;;;;;21.20;9.10;;;;;;;7.12;69.04;99524.35;106014;1274;107524;-72
2022/02/10 10:06:16;;;;;;;20.50;9.20;;;;;;;7.09;68.93;99518.91;106017;1274;97953;-72
2022/02/10 10:23:11;;;;;;;20.80;9.00;;;;;;;7.02;68.77;99502.67;106000;1274;95931;-72
2022/02/10 10:51:24;;;;;;;22.50;9.60;;;;;;;6.97;68.07;99458.11;106154;1274;95247;-73
2022/02/10 10:56:35;;;;;;;22.70;10.60;;;;;;;6.98;68.20;99453.14;106076;1274;97705;-73
2022/02/10 11:00:07;;;;;;;21.60;9.60;;;;;;;7.01;68.10;99448.41;106105;1274;107529;-72
2022/02/10 11:36:26;;;;;;;22.20;10.20;;;;;;;7.12;67.69;99402.34;106111;1274;111396;-73
2022/02/10 12:00:10;;;;;;;21.70;9.60;;;;;;;7.27;67.61;99362.89;106080;1274;97955;-72
2022/02/10 12:37:02;;;;;;;21.60;8.50;;;;;;;7.40;66.58;99318.44;106027;1274;97986;-72
2022/02/10 13:50:27;;;;;;;18.10;8.10;;;;;;;7.52;65.52;99259.04;105984;1274;97893;-73
2022/02/10 14:12:00;;;;;;;19.40;8.30;;;;;;;7.48;64.65;99243.40;106046;1274;97886;-72
2022/02/10 14:14:32;;;;;;;20.20;8.20;;;;;;;7.49;64.92;99235.25;106112;1274;111655;-73
2022/02/10 14:17:28;;;;;;;20.70;7.80;;;;;;;7.50;64.64;99234.25;106151;1274;97963;-74
2022/02/10 14:20:13;;;;;;;19.50;8.40;;;;;;;7.50;64.52;99230.23;106093;1274;106809;-74
2022/02/10 14:22:53;;;;;;;18.80;8.10;;;;;;;7.47;64.31;99226.84;106099;1274;98688;-73
2022/02/10 14:25:41;;;;;;;23.00;8.90;;;;;;;7.45;64.04;99223.45;106093;1274;95998;-73
2022/02/10 14:28:18;;;;;;;20.80;9.10;;;;;;;7.39;64.11;99217.75;106145;1276;111426;-73
2022/02/10 14:30:51;;;;;;;23.60;10.90;;;;;;;7.37;64.36;99217.72;106147;1274;95181;-74
2022/02/10 14:33:25;;;;;;;19.60;8.60;;;;;;;7.37;64.30;99212.60;106041;1275;107705;-73
2022/02/10 14:36:28;;;;;;;23.40;9.90;;;;;;;7.36;64.12;99217.77;106170;1276;97974;-74
2022/02/10 14:39:13;;;;;;;20.60;9.30;;;;;;;7.30;64.23;99216.71;106144;1274;97963;-72
2022/02/10 16:17:17;;;;;;;32.20;16.20;;;;;;;5.33;65.53;99160.64;106076;1275;111551;-77
2022/02/10 16:19:47;;;;;;;32.40;17.00;;;;;;;5.25;65.58;99152.61;106013;1274;96577;-76
2022/02/10 16:24:57;;;;;;;33.60;16.20;;;;;;;5.11;65.71;99148.85;106043;1275;97941;-75
2022/02/10 16:27:33;;;;;;;31.50;15.60;;;;;;;5.07;65.91;99154.14;106109;1275;97953;-75
2022/02/10 16:30:27;;;;;;;;;;;;;;;;;;;;;
2022/02/10 16:33:01;;;;;;;27.30;14.50;;;;;;;4.96;66.22;99155.02;106069;1275;97955;-75
2022/02/10 16:35:33;;;;;;;29.60;15.10;;;;;;;4.89;66.29;99163.23;106140;1275;107694;-73
2022/02/10 16:38:06;;;;;;;30.30;14.60;;;;;;;4.84;66.40;99154.35;106011;1275;98007;-75
2022/02/10 16:40:44;;;;;;;32.70;15.30;;;;;;;4.78;66.72;99168.34;106102;1276;95841;-72
2022/02/10 16:43:16;;;;;;;31.60;15.60;;;;;;;4.73;66.44;99168.23;105957;1275;111191;-72
2022/02/10 16:45:55;;;;;;;31.60;16.40;;;;;;;4.68;66.56;99164.42;105937;1276;97880;-73
2022/02/10 16:48:33;;;;;;;33.60;16.20;;;;;;;4.65;66.81;99171.41;105971;1275;107632;-72
2022/02/10 16:51:09;;;;;;;32.60;16.20;;;;;;;4.57;66.68;99171.95;105977;1274;97861;-74
2022/02/10 16:53:47;;;;;;;33.60;17.10;;;;;;;4.53;66.89;99167.23;106140;1276;95193;-73
2022/02/10 16:56:25;;;;;;;32.60;16.10;;;;;;;4.48;67.08;99160.77;105985;1276;111284;-74
2022/02/10 17:01:59;;;;;;;32.80;16.80;;;;;;;4.40;67.11;99157.08;106035;1274;107635;-73
2022/02/10 17:42:27;;;;;;;39.10;20.50;;;;;;;3.93;68.96;99142.88;106103;1274;97858;-73
2022/02/10 17:44:21;;;;;;;39.00;20.40;;;;;;;3.86;68.99;99131.79;106023;1276;106900;-74
2022/02/10 17:52:17;;;;;;;37.60;19.20;;;;;;;3.79;69.04;99139.11;106052;1274;111361;-72
2022/02/10 17:54:47;;;;;;;37.30;21.00;;;;;;;3.78;69.50;99136.17;106075;1274;96581;-74
2022/02/10 17:57:16;;;;;;;38.60;20.90;;;;;;;3.76;69.46;99133.42;106022;1275;107884;-73
2022/02/10 17:59:49;;;;;;;39.20;20.90;;;;;;;3.76;69.89;99114.69;105955;1274;97994;-72
2022/02/10 18:02:17;;;;;;;38.10;20.70;;;;;;;3.72;69.72;99108.00;106050;1274;96444;-75
2022/02/10 18:04:46;;;;;;;37.80;19.80;;;;;;;3.70;69.82;99115.81;105983;1274;111412;-74
2022/02/10 18:07:14;;;;;;;36.80;19.60;;;;;;;3.70;70.12;99117.91;105969;1274;97731;-75
2022/02/10 18:10:08;;;;;;;35.40;18.90;;;;;;;3.68;70.20;99120.46;105986;1275;107671;-76
2022/02/10 18:15:19;;;;;;;37.00;19.90;;;;;;;3.64;70.32;99112.75;105905;1275;95885;-73
2022/02/10 18:17:56;;;;;;;36.80;20.50;;;;;;;3.64;70.17;99111.88;105839;1274;111367;-73
2022/02/10 18:20:31;;;;;;;37.70;20.60;;;;;;;3.64;70.59;99113.10;105888;1276;97731;-75
2022/02/10 18:23:10;;;;;;;35.80;18.70;;;;;;;3.60;70.73;99105.17;105939;1274;107432;-74
2022/02/10 18:35:04;;;;;;;33.90;17.50;;;;;;;3.57;70.48;99098.80;105862;1275;97892;-73
2022/02/10 19:10:09;;;;;;;40.20;19.90;;;;;;;3.48;72.12;99060.83;105970;1275;95288;-72
2022/02/10 19:12:52;;;;;;;38.90;21.00;;;;;;;3.45;72.38;99059.71;106067;1275;111395;-72
2022/02/10 19:15:33;;;;;;;40.70;21.30;;;;;;;3.41;72.39;99053.38;105858;1277;95963;-74
2022/02/10 19:18:09;;;;;;;38.10;20.70;;;;;;;3.42;72.67;99053.89;105976;1276;108371;-72
2022/02/10 19:20:39;;;;;;;38.40;20.70;;;;;;;3.41;72.40;99046.40;106076;1274;97985;-72
2022/02/10 19:23:09;;;;;;;38.80;20.70;;;;;;;3.42;72.64;99052.82;106083;1275;97862;-73
2022/02/10 19:25:40;;;;;;;37.40;19.60;;;;;;;3.41;72.33;99060.05;106037;1274;112555;-72
2022/02/10 19:28:09;;;;;;;38.30;20.40;;;;;;;3.43;72.13;99063.84;105980;1275;97867;-72
2022/02/10 19:30:39;;;;;;;36.20;19.50;;;;;;;3.45;72.23;99067.09;105893;1275;107754;-73
2022/02/10 19:33:12;;;;;;;35.80;18.80;;;;;;;3.47;72.35;99068.58;105854;1275;96422;-72
2022/02/10 19:35:47;;;;;;;36.50;20.40;;;;;;;3.49;72.15;99071.13;105883;1277;97975;-74
2022/02/10 19:38:20;;;;;;;37.50;20.10;;;;;;;3.51;72.29;99069.81;105987;1276;111149;-72
2022/02/10 19:40:52;;;;;;;39.60;20.30;;;;;;;3.53;72.19;99072.52;106037;1274;97895;-73
2022/02/10 19:43:22;;;;;;;37.00;20.50;;;;;;;3.56;72.10;99076.61;105985;1274;107915;-73
2022/02/10 19:45:52;;;;;;;38.90;19.30;;;;;;;3.57;72.15;99079.00;105825;1275;98428;-74
2022/02/10 19:48:22;;;;;;;37.10;19.80;;;;;;;3.59;72.26;99079.64;106019;1274;97858;-74
2022/02/10 19:50:51;;;;;;;40.60;21.40;;;;;;;3.60;72.29;99080.47;105942;1274;111226;-72
2022/02/10 19:53:22;;;;;;;37.50;20.80;;;;;;;3.62;72.41;99076.34;105940;1274;97621;-74
2022/02/10 19:55:52;;;;;;;40.20;19.10;;;;;;;3.64;72.47;99074.85;106009;1274;107801;-71
2022/02/10 19:58:23;;;;;;;35.00;18.30;;;;;;;3.66;72.31;99082.15;105949;1276;97951;-73
2022/02/10 20:00:57;;;;;;;37.70;19.30;;;;;;;3.68;72.33;99082.04;105952;1274;95961;-73
2022/02/10 20:03:27;;;;;;;33.40;16.00;;;;;;;3.69;72.43;99083.57;105982;1274;111452;-72
2022/02/10 20:06:03;;;;;;;37.10;19.20;;;;;;;3.69;72.96;99084.29;106092;1277;97987;-72
2022/02/10 20:08:31;;;;;;;34.90;17.10;;;;;;;3.66;72.50;99086.85;105970;1275;107765;-75
2022/02/10 20:10:58;;;;;;;35.90;19.10;;;;;;;3.68;72.75;99086.60;105927;1277;96556;-73
2022/02/10 20:13:32;;;;;;;37.80;20.40;;;;;;;3.66;72.60;99086.54;105999;1275;97882;-71
2022/02/10 20:16:07;;;;;;;33.90;17.30;;;;;;;3.65;72.61;99086.56;106043;1275;111528;-72
2022/02/10 20:18:36;;;;;;;36.40;20.00;;;;;;;3.64;72.80;99083.27;106036;1275;97743;-74
2022/02/10 20:21:08;;;;;;;37.30;19.10;;;;;;;3.63;72.67;99081.58;105981;1274;107833;-72
2022/02/10 20:23:37;;;;;;;31.70;17.30;;;;;;;3.62;72.41;99077.58;105949;1275;97944;-74
2022/02/10 20:26:11;;;;;;;35.20;18.60;;;;;;;3.62;72.81;99082.66;106068;1274;96549;-74
2022/02/10 20:28:44;;;;;;;38.30;18.70;;;;;;;3.61;72.44;99084.48;105997;1275;112454;-72
2022/02/10 20:31:13;;;;;;;34.30;19.70;;;;;;;3.60;72.51;99081.35;105957;1275;97907;-70
2022/02/10 20:33:42;;;;;;;34.70;17.60;;;;;;;3.60;72.58;99082.06;105965;1274;107707;-69
2022/02/10 20:36:10;;;;;;;34.30;17.50;;;;;;;3.59;72.66;99073.67;106017;1275;98679;-71
2022/02/10 20:38:41;;;;;;;33.40;17.30;;;;;;;3.60;72.60;99077.34;105770;1275;97796;-70
2022/02/10 20:41:14;;;;;;;38.10;19.50;;;;;;;3.60;72.62;99077.33;105904;1276;111452;-71
2022/02/10 20:43:46;;;;;;;33.60;16.90;;;;;;;3.60;72.52;99078.72;106100;1275;97835;-71
2022/02/10 20:46:17;;;;;;;33.60;17.70;;;;;;;3.61;72.66;99079.02;105843;1275;107869;-71
2022/02/10 20:48:45;;;;;;;35.70;18.80;;;;;;;3.61;72.77;99077.45;105791;1275;97980;-70
2022/02/10 20:51:15;;;;;;;34.90;18.50;;;;;;;3.59;72.71;99076.11;105755;1277;95968;-72
2022/02/10 20:53:50;;;;;;;37.80;19.30;;;;;;;3.58;72.81;99080.73;105904;1275;110891;-71
2022/02/10 20:56:20;;;;;;;34.50;17.80;;;;;;;3.58;72.81;99080.17;105844;1274;98080;-72
2022/02/10 20:58:56;;;;;;;37.40;18.30;;;;;;;3.58;72.65;99077.94;105858;1275;108916;-72
2022/02/10 21:01:24;;;;;;;33.60;16.40;;;;;;;3.58;72.69;99078.10;105837;1275;97919;-72
2022/02/10 21:03:53;;;;;;;33.00;16.60;;;;;;;3.57;72.94;99076.54;105845;1277;97930;-71
2022/02/10 21:09:04;;;;;;;33.30;17.20;;;;;;;3.57;72.74;99076.91;105892;1275;95190;-70
2022/02/10 21:11:33;;;;;;;32.70;16.50;;;;;;;3.56;72.58;99069.05;105856;1276;107453;-71
2022/02/10 21:14:06;;;;;;;34.60;18.00;;;;;;;3.56;72.74;99063.09;105818;1275;97863;-70
2022/02/10 21:16:36;;;;;;;32.70;17.70;;;;;;;3.55;72.73;99063.13;105851;1275;97889;-71
2022/02/10 21:19:04;;;;;;;32.30;16.70;;;;;;;3.54;72.78;99061.58;105968;1277;111370;-70
2022/02/10 21:21:32;;;;;;;32.20;16.80;;;;;;;3.54;72.72;99064.05;105829;1274;97886;-71
2022/02/10 21:24:06;;;;;;;33.10;16.90;;;;;;;3.54;72.70;99067.55;105865;1272;107816;-70
2022/02/10 21:26:44;;;;;;;33.70;17.30;;;;;;;3.54;72.97;99063.02;105830;1275;97951;-70
2022/02/10 21:29:12;;;;;;;32.60;16.60;;;;;;;3.53;72.93;99057.95;105967;1274;97765;-70
2022/02/10 21:31:44;;;;;;;30.10;16.30;;;;;;;3.54;72.68;99053.69;106009;1274;111466;-70
2022/02/10 21:34:20;;;;;;;32.30;17.50;;;;;;;3.55;72.91;99054.20;106059;1274;97877;-70
2022/02/10 21:37:03;;;;;;;33.10;16.10;;;;;;;3.56;72.64;99052.77;106042;1274;107803;-70
2022/02/10 21:48:23;;;;;;;31.60;17.20;;;;;;;3.66;72.86;99035.50;106016;1274;98408;-71
2022/02/10 21:54:03;;;;;;;32.80;16.80;;;;;;;3.69;72.96;99032.71;105958;1278;97111;-71
2022/02/10 21:59:21;;;;;;;29.40;14.70;;;;;;;3.74;72.84;99028.98;105951;1274;111377;-71
2022/02/10 22:09:45;;;;;;;30.20;14.80;;;;;;;3.82;73.13;99020.05;106006;1274;97938;-71
2022/02/10 22:20:46;;;;;;;28.40;14.70;;;;;;;3.92;73.05;99020.65;105918;1274;98197;-67
2022/02/10 22:23:22;;;;;;;31.30;14.90;;;;;;;3.94;72.77;99017.58;105945;1274;96364;-70
2022/02/10 22:26:01;;;;;;;32.20;15.40;;;;;;;3.94;73.15;99017.36;105907;1274;110498;-70
2022/02/10 22:28:42;;;;;;;30.70;15.60;;;;;;;3.97;73.06;99019.88;105836;1275;97980;-70
2022/02/10 22:36:23;;;;;;;30.70;15.00;;;;;;;4.04;73.15;99017.83;105900;1274;98001;-70
2022/02/10 22:38:54;;;;;;;32.70;15.10;;;;;;;4.05;73.20;99021.80;106044;1274;111785;-71
2022/02/10 22:41:22;;;;;;;31.00;15.30;;;;;;;4.08;73.09;99017.98;105805;1274;97979;-70
2022/02/10 22:43:52;;;;;;;33.90;15.30;;;;;;;4.10;73.14;99017.37;105843;1274;108459;-71
2022/02/10 22:46:21;;;;;;;29.10;14.90;;;;;;;4.11;73.27;99020.29;107799;1274;95712;-70
2022/02/10 22:48:50;;;;;;;29.70;15.00;;;;;;;4.13;72.99;99018.62;107882;1274;96067;-70
2022/02/10 22:51:21;;;;;;;29.00;14.10;;;;;;;4.16;73.05;99019.71;107919;1274;111280;-69
2022/02/10 22:53:50;;;;;;;28.00;13.70;;;;;;;4.18;73.02;99023.31;107775;1274;95726;-70
2022/02/10 22:56:24;;;;;;;29.20;12.70;;;;;;;4.21;73.01;99024.05;106971;1274;108218;-70
2022/02/10 22:58:58;;;;;;;27.30;13.70;;;;;;;4.23;72.90;99023.21;107546;1274;95769;-71
2022/02/10 23:01:27;;;;;;;27.10;13.40;;;;;;;4.26;73.02;99021.17;107774;1277;95747;-70
2022/02/10 23:03:56;;;;;;;29.50;14.00;;;;;;;4.28;73.05;99021.79;107820;1274;112324;-70
2022/02/10 23:06:24;;;;;;;30.70;15.30;;;;;;;4.29;72.94;99015.73;107844;1274;95736;-70
2022/02/10 23:08:53;;;;;;;25.30;12.10;;;;;;;4.32;72.91;99014.38;107833;1274;106361;-70
2022/02/10 23:11:27;;;;;;;27.70;14.00;;;;;;;4.35;72.93;99017.08;107268;1274;98001;-71
2022/02/10 23:14:01;;;;;;;27.70;12.50;;;;;;;4.37;72.96;99020.64;105982;1274;97874;-70
2022/02/10 23:16:31;;;;;;;28.70;13.00;;;;;;;4.40;73.02;99017.02;105923;1274;111406;-70
2022/02/10 23:18:59;;;;;;;25.50;12.70;;;;;;;4.41;73.07;99016.60;105988;1274;97904;-70
2022/02/10 23:21:27;;;;;;;26.80;13.20;;;;;;;4.43;73.22;99018.79;105994;1274;107732;-70
2022/02/10 23:23:55;;;;;;;29.50;13.50;;;;;;;4.44;73.12;99017.68;106038;1274;98017;-70
2022/02/10 23:26:24;;;;;;;25.90;12.90;;;;;;;4.43;72.87;99026.67;105993;1274;97944;-70
2022/02/10 23:28:57;;;;;;;27.60;13.00;;;;;;;4.43;72.98;99033.89;105977;1274;111512;-70
2022/02/10 23:31:28;;;;;;;26.90;14.30;;;;;;;4.40;73.09;99031.39;105991;1274;95193;-70
2022/02/10 23:34:01;;;;;;;27.10;12.60;;;;;;;4.39;73.00;99031.77;106036;1276;107737;-73
2022/02/10 23:42:07;;;;;;;27.20;12.90;;;;;;;4.38;72.93;99032.58;106059;1274;111448;-72
2022/02/10 23:45:06;;;;;;;26.20;12.90;;;;;;;4.37;72.96;99031.88;106033;1274;95302;-70
2022/02/10 23:47:32;;;;;;;27.80;13.70;;;;;;;4.38;72.88;99033.94;106026;1274;106733;-71
2022/02/10 23:50:03;;;;;;;26.30;12.30;;;;;;;4.39;73.02;99035.33;105984;1275;96366;-72
2022/02/10 23:52:30;;;;;;;27.50;12.20;;;;;;;4.38;72.93;99038.49;106041;1274;97879;-71
2022/02/10 23:55:06;;;;;;;25.10;11.80;;;;;;;4.38;72.96;99039.38;106155;1274;111007;-71
2022/02/10 23:57:57;;;;;;;26.20;12.10;;;;;;;4.39;72.96;99038.11;106034;1276;97984;-71
